Latest Coastal Weather Observations for Gannett Cay

IDQ60701

Issued at 4:13 pm EST Wednesday 8 February 2023 (issued every 10 minutes, with the page automatically refreshed every 10 minutes)

About coastal observations | Map of coastal stations | Coastal observations for QLD | Marine services | Other Formats
Station Details ID: 200831 Name: GANNET CAY Lat: -21.98 Lon: 152.47 Height: 2.3 m
Data from the previous 72 hours. | See also: Recent months for locations in Queensland
Date/Time
EST
Wind Sea
Height
m
Swell Vis
km
Cloud Weather Temp
°C
Press
MSL
hPa
Rain since
9am
mm
Dir  Spd
kts
Gust
kts
Height
m
Period
s
Dir
08/04:00pm SE 31 37 - - - - - - - 27.3 1004.1 -
08/03:30pm SE 31 38 - - - - - - - 26.6 1004.1 -
08/03:00pm SE 30 37 - - - - - - - 26.5 1004.1 -
08/02:30pm SE 27 31 - - - - - - - 26.6 1004.1 -
08/02:13pm SE 24 34 - - - - - - - 26.6 1004.2 -
08/02:00pm SE 25 29 - - - - - - - 26.0 1004.5 -
08/01:30pm SE 27 33 - - - - - - - 27.6 1004.7 -
08/01:00pm SE 25 29 - - - - - - - 27.3 1005.1 -
08/12:30pm ESE 25 31 - - - - - - - 27.4 1005.3 -
08/12:00pm ESE 23 28 - - - - - - - 28.0 1005.4 -
08/11:30am ESE 25 30 - - - - - - - 27.9 1005.7 -
08/11:00am ESE 25 30 - - - - - - - 27.7 1006.0 -
08/10:30am ESE 25 29 - - - - - - - 27.9 1006.0 -
08/10:00am ESE 23 28 - - - - - - - 27.7 1006.0 -
08/09:30am ESE 23 28 - - - - - - - 27.7 1006.1 -
08/09:00am E 23 27 - - - - - - - 26.5 1006.2 -
08/08:30am E 23 31 - - - - - - - 25.6 1006.2 -
08/08:00am E 26 31 - - - - - - - 24.9 1006.1 -
08/07:51am ESE 26 35 - - - - - - - 25.1 1006.1 -
08/07:30am SE 28 35 - - - - - - - 26.1 1006.3 -
08/07:00am ESE 28 35 - - - - - - - 26.1 1006.2 -
08/06:30am SE 28 32 - - - - - - - 27.0 1005.8 -
08/06:00am SE 26 31 - - - - - - - 26.7 1005.8 -
08/05:30am SE 28 35 - - - - - - - 25.9 1005.6 -
08/05:00am SE 27 33 - - - - - - - 26.2 1005.4 -
08/04:30am SE 29 35 - - - - - - - 26.2 1005.3 -
08/04:00am SE 28 35 - - - - - - - 26.4 1005.2 -
08/03:30am SE 27 32 - - - - - - - 26.7 1005.1 -
08/03:00am SE 29 33 - - - - - - - 27.0 1005.3 -
08/02:30am SE 28 32 - - - - - - - 27.1 1005.6 -
08/02:00am SE 28 34 - - - - - - - 27.1 1005.7 -
08/01:30am SE 27 31 - - - - - - - 27.3 1006.2 -
08/01:00am SE 26 31 - - - - - - - 27.4 1006.5 -
08/12:30am SE 26 31 - - - - - - - 27.2 1006.9 -
08/12:00am SE 25 30 - - - - - - - 27.0 1007.2 -
 
Date/Time
EST
Wind Sea
Height
m
Swell Vis
km
Cloud Weather Temp
°C
Press
MSL
hPa
Rain since
9am
mm
Dir  Spd
kts
Gust
kts
Height
m
Period
s
Dir
07/11:30pm SE 28 34 - - - - - - - 26.8 1007.7 -
07/11:00pm SE 26 32 - - - - - - - 26.3 1007.9 -
07/10:30pm SE 26 30 - - - - - - - 27.3 1008.0 -
07/10:00pm SE 27 31 - - - - - - - 27.7 1008.1 -
07/09:30pm SE 25 29 - - - - - - - 26.6 1008.4 -
07/09:00pm SE 27 32 - - - - - - - 25.9 1008.4 -
07/08:30pm SE 28 33 - - - - - - - 27.7 1008.0 -
07/08:00pm SE 27 31 - - - - - - - 27.6 1007.7 -
07/07:30pm SE 27 33 - - - - - - - 27.6 1007.6 -
07/07:00pm SE 27 32 - - - - - - - 27.5 1007.4 -
07/06:30pm SE 29 35 - - - - - - - 27.6 1007.0 -
07/06:00pm SE 28 33 - - - - - - - 27.5 1006.9 -
07/05:30pm SE 27 32 - - - - - - - 27.6 1006.6 -
07/05:00pm SE 26 31 - - - - - - - 27.3 1006.4 -
07/04:30pm SE 29 34 - - - - - - - 26.6 1006.3 -
07/04:00pm SE 29 34 - - - - - - - 27.4 1006.2 -
07/03:30pm SE 28 34 - - - - - - - 27.0 1006.3 -
07/03:00pm SE 27 32 - - - - - - - 27.9 1006.3 -
07/02:30pm SE 26 29 - - - - - - - 27.1 1006.5 -
07/02:10pm SE 19 23 - - - - - - - 26.8 1006.7 -
07/02:00pm ESE 21 25 - - - - - - - 26.3 1006.9 -
07/01:30pm SE 19 22 - - - - - - - 27.6 1007.0 -
07/01:00pm SE 24 33 - - - - - - - 27.1 1007.5 -
07/12:59pm SE 23 33 - - - - - - - 27.3 1007.6 -
07/12:30pm SE 23 29 - - - - - - - 26.1 1007.6 -
07/12:00pm SSE 19 22 - - - - - - - 27.0 1007.8 -
07/11:41am SE 20 33 - - - - - - - 28.3 1008.0 -
07/11:30am SE 19 22 - - - - - - - 28.5 1008.1 -
07/11:00am SE 19 23 - - - - - - - 28.5 1008.4 -
07/10:30am SE 19 23 - - - - - - - 28.5 1008.5 -
07/10:00am SE 19 22 - - - - - - - 28.5 1008.6 -
07/09:30am SE 19 22 - - - - - - - 28.2 1008.5 -
07/09:00am ESE 19 23 - - - - - - - 28.4 1008.5 -
07/08:30am SE 19 23 - - - - - - - 28.3 1008.4 -
07/08:00am ESE 19 22 - - - - - - - 28.1 1008.3 -
07/07:30am ESE 22 27 - - - - - - - 27.9 1008.0 -
07/07:00am ESE 19 22 - - - - - - - 28.2 1008.1 -
07/06:30am SE 19 22 - - - - - - - 28.1 1007.9 -
07/06:00am ESE 22 25 - - - - - - - 28.0 1007.6 -
07/05:30am ESE 23 25 - - - - - - - 27.9 1007.3 -
07/05:00am SE 22 25 - - - - - - - 28.0 1007.0 -
07/04:30am SE 20 24 - - - - - - - 27.9 1007.1 -
07/04:00am SE 21 25 - - - - - - - 27.9 1007.0 -
07/03:30am SE 20 24 - - - - - - - 28.0 1007.3 -
07/03:00am ESE 17 20 - - - - - - - 27.5 1007.3 -
07/02:30am SE 20 23 - - - - - - - 28.1 1007.3 -
07/02:00am SE 20 24 - - - - - - - 28.1 1007.5 -
07/01:30am ESE 20 24 - - - - - - - 28.1 1007.9 -
07/01:00am ESE 21 23 - - - - - - - 28.1 1008.1 -
07/12:30am ESE 18 21 - - - - - - - 27.8 1008.4 -
07/12:00am SE 19 23 - - - - - - - 27.1 1008.8 -
 
Date/Time
EST
Wind Sea
Height
m
Swell Vis
km
Cloud Weather Temp
°C
Press
MSL
hPa
Rain since
9am
mm
Dir  Spd
kts
Gust
kts
Height
m
Period
s
Dir
06/11:42pm SE 22 32 - - - - - - - 26.7 1009.1 -
06/11:30pm ESE 24 30 - - - - - - - 26.8 1009.0 -
06/11:00pm SE 19 22 - - - - - - - 27.9 1009.1 -
06/10:30pm SE 21 25 - - - - - - - 27.9 1009.4 -
06/10:00pm ESE 21 25 - - - - - - - 28.3 1009.5 -
06/09:30pm ESE 21 24 - - - - - - - 28.3 1009.4 -
06/09:00pm ESE 18 21 - - - - - - - 27.5 1009.5 -
06/08:41pm ESE 20 24 - - - - - - - 27.2 1009.5 -
06/08:30pm SE 20 23 - - - - - - - 28.3 1009.5 -
06/08:00pm SE 19 22 - - - - - - - 28.3 1009.5 -
06/07:30pm SE 19 22 - - - - - - - 28.2 1009.4 -
06/07:00pm SE 20 23 - - - - - - - 28.4 1009.2 -
06/06:30pm SE 19 22 - - - - - - - 28.3 1008.8 -
06/06:00pm SE 19 21 - - - - - - - 28.5 1008.4 -
06/05:30pm SE 18 21 - - - - - - - 28.6 1008.3 -
06/05:00pm SE 17 20 - - - - - - - 28.8 1008.4 -
06/04:30pm SE 16 19 - - - - - - - 28.9 1008.3 -
06/04:00pm SE 16 18 - - - - - - - 29.0 1008.3 -
06/03:30pm SE 17 19 - - - - - - - 29.0 1008.3 -
06/03:00pm SE 16 18 - - - - - - - 29.0 1008.5 -
06/02:30pm ESE 15 19 - - - - - - - 29.2 1008.8 -
06/02:00pm ESE 15 17 - - - - - - - 29.1 1008.9 -
06/01:30pm ESE 14 16 - - - - - - - 29.0 1009.3 -
06/01:00pm E 14 17 - - - - - - - 28.9 1009.6 -
06/12:30pm ESE 13 15 - - - - - - - 29.0 1010.0 -
06/12:00pm ESE 13 15 - - - - - - - 28.9 1010.3 -
06/11:30am ESE 14 17 - - - - - - - 29.0 1010.5 -
06/11:00am ESE 13 16 - - - - - - - 28.9 1010.7 -
06/10:30am ESE 13 15 - - - - - - - 28.8 1010.9 -
06/10:00am ESE 12 14 - - - - - - - 28.7 1010.8 -
06/09:30am ESE 13 14 - - - - - - - 28.7 1010.7 -
06/09:00am ESE 13 16 - - - - - - - 28.5 1010.7 -
06/08:30am ESE 12 14 - - - - - - - 28.5 1010.8 -
06/08:00am ESE 13 16 - - - - - - - 28.5 1010.7 -
06/07:30am E 12 14 - - - - - - - 28.6 1010.6 -
06/07:00am E 14 16 - - - - - - - 28.5 1010.2 -
06/06:30am ESE 13 16 - - - - - - - 28.4 1010.0 -
06/06:00am ESE 14 15 - - - - - - - 28.1 1010.0 -
06/05:30am E 12 14 - - - - - - - 27.8 1009.8 -
06/05:00am SSE 9 11 - - - - - - - 27.2 1009.4 -
06/04:30am SE 7 9 - - - - - - - 26.6 1009.1 -
06/04:00am SSE 8 10 - - - - - - - 26.4 1008.9 -
06/03:30am ESE 10 19 - - - - - - - 26.8 1008.9 -
06/03:00am ESE 8 10 - - - - - - - 27.9 1008.6 -
06/02:30am ESE 9 11 - - - - - - - 27.9 1008.7 -
06/02:00am ESE 9 10 - - - - - - - 28.0 1009.0 -
06/01:30am ESE 9 10 - - - - - - - 28.0 1009.1 -
06/01:00am ESE 9 10 - - - - - - - 28.0 1009.3 -
06/12:30am ESE 10 11 - - - - - - - 28.1 1009.5 -
06/12:00am E 9 11 - - - - - - - 28.1 1009.6 -
 
Date/Time
EST
Wind Sea
Height
m
Swell Vis
km
Cloud Weather Temp
°C
Press
MSL
hPa
Rain since
9am
mm
Dir  Spd
kts
Gust
kts
Height
m
Period
s
Dir
05/11:30pm E 11 13 - - - - - - - 28.3 1010.0 -
05/11:00pm E 11 12 - - - - - - - 28.2 1009.9 -
05/10:30pm E 11 12 - - - - - - - 28.2 1010.1 -
05/10:00pm E 11 13 - - - - - - - 28.2 1010.2 -
05/09:30pm E 12 13 - - - - - - - 28.2 1010.0 -
05/09:00pm E 11 13 - - - - - - - 28.2 1009.8 -
05/08:30pm E 13 14 - - - - - - - 28.1 1009.8 -
05/08:00pm ESE 13 15 - - - - - - - 28.1 1009.6 -
05/07:30pm ESE 15 17 - - - - - - - 28.3 1009.3 -
05/07:00pm SE 14 16 - - - - - - - 28.3 1008.7 -
05/06:30pm SE 14 16 - - - - - - - 28.5 1008.7 -
05/06:00pm SE 14 16 - - - - - - - 28.8 1008.5 -
05/05:30pm ESE 12 14 - - - - - - - 29.0 1008.2 -
05/05:00pm SE 12 13 - - - - - - - 29.0 1008.2 -
05/04:30pm SE 11 12 - - - - - - - 29.2 1008.2 -

Other formats

Comma delimited format used in spreadsheet applications
http://www.bom.gov.au/fwo/IDQ60701/IDQ60701.94379.axf

JavaScript Object Notation format (JSON) in row-major order
http://www.bom.gov.au/fwo/IDQ60701/IDQ60701.94379.json

Data quality

Most of these data are generated automatically and are frequently updated. Quality checks on data are not normally performed. It is possible for incorrect values to appear. Refer to information at About Latest Weather Observations and please check the disclaimer before using these data.